sensor_id;sensor_type;location;lat;lon;timestamp;P1;durP1;ratioP1;P2;durP2;ratioP2
56319;SDS011;42226;42.382;23.748;2023-04-24T00:01:59;6.60;;;5.93;;
56319;SDS011;42226;42.382;23.748;2023-04-24T00:04:27;6.97;;;6.30;;
56319;SDS011;42226;42.382;23.748;2023-04-24T00:06:55;8.30;;;6.10;;
56319;SDS011;42226;42.382;23.748;2023-04-24T00:09:26;6.22;;;5.63;;
56319;SDS011;42226;42.382;23.748;2023-04-24T00:11:54;6.72;;;5.80;;
56319;SDS011;42226;42.382;23.748;2023-04-24T00:14:21;10.75;;;6.20;;
56319;SDS011;42226;42.382;23.748;2023-04-24T00:16:48;7.28;;;5.80;;
56319;SDS011;42226;42.382;23.748;2023-04-24T00:19:15;6.38;;;5.57;;
56319;SDS011;42226;42.382;23.748;2023-04-24T00:21:43;8.98;;;6.97;;
56319;SDS011;42226;42.382;23.748;2023-04-24T00:24:09;7.80;;;6.20;;
56319;SDS011;42226;42.382;23.748;2023-04-24T00:26:37;7.43;;;6.28;;
56319;SDS011;42226;42.382;23.748;2023-04-24T00:29:04;7.40;;;6.70;;
56319;SDS011;42226;42.382;23.748;2023-04-24T00:31:32;7.43;;;6.72;;
56319;SDS011;42226;42.382;23.748;2023-04-24T00:34:03;7.03;;;6.43;;
56319;SDS011;42226;42.382;23.748;2023-04-24T00:36:31;7.18;;;6.47;;
56319;SDS011;42226;42.382;23.748;2023-04-24T00:38:59;7.45;;;6.80;;
56319;SDS011;42226;42.382;23.748;2023-04-24T00:41:25;8.35;;;7.07;;
56319;SDS011;42226;42.382;23.748;2023-04-24T00:43:53;8.27;;;7.47;;
56319;SDS011;42226;42.382;23.748;2023-04-24T00:46:20;8.07;;;6.93;;
56319;SDS011;42226;42.382;23.748;2023-04-24T00:48:48;7.80;;;7.03;;
56319;SDS011;42226;42.382;23.748;2023-04-24T00:51:14;8.52;;;7.72;;
56319;SDS011;42226;42.382;23.748;2023-04-24T00:53:42;10.02;;;7.18;;
56319;SDS011;42226;42.382;23.748;2023-04-24T00:56:10;9.00;;;7.80;;
56319;SDS011;42226;42.382;23.748;2023-04-24T00:58:38;8.82;;;7.28;;
56319;SDS011;42226;42.382;23.748;2023-04-24T01:01:06;7.95;;;7.15;;
56319;SDS011;42226;42.382;23.748;2023-04-24T01:03:32;7.72;;;7.03;;
56319;SDS011;42226;42.382;23.748;2023-04-24T01:06:04;8.98;;;7.43;;
56319;SDS011;42226;42.382;23.748;2023-04-24T01:08:32;7.28;;;6.57;;
56319;SDS011;42226;42.382;23.748;2023-04-24T01:11:01;7.15;;;6.43;;
56319;SDS011;42226;42.382;23.748;2023-04-24T01:13:31;7.13;;;6.43;;
56319;SDS011;42226;42.382;23.748;2023-04-24T01:15:59;8.60;;;6.45;;
56319;SDS011;42226;42.382;23.748;2023-04-24T01:18:27;7.65;;;6.82;;
56319;SDS011;42226;42.382;23.748;2023-04-24T01:20:57;8.88;;;6.28;;
56319;SDS011;42226;42.382;23.748;2023-04-24T01:23:25;8.95;;;6.40;;
56319;SDS011;42226;42.382;23.748;2023-04-24T01:25:53;7.40;;;6.70;;
56319;SDS011;42226;42.382;23.748;2023-04-24T01:28:20;8.00;;;7.20;;
56319;SDS011;42226;42.382;23.748;2023-04-24T01:30:48;8.32;;;7.03;;
56319;SDS011;42226;42.382;23.748;2023-04-24T01:33:16;8.60;;;7.80;;
56319;SDS011;42226;42.382;23.748;2023-04-24T01:35:44;8.40;;;7.60;;
56319;SDS011;42226;42.382;23.748;2023-04-24T01:38:12;7.82;;;7.13;;
56319;SDS011;42226;42.382;23.748;2023-04-24T01:40:38;8.85;;;7.95;;
56319;SDS011;42226;42.382;23.748;2023-04-24T01:43:07;8.85;;;7.93;;
56319;SDS011;42226;42.382;23.748;2023-04-24T01:45:34;7.90;;;6.95;;
56319;SDS011;42226;42.382;23.748;2023-04-24T01:48:02;7.15;;;6.45;;
56319;SDS011;42226;42.382;23.748;2023-04-24T01:50:30;7.90;;;6.93;;
56319;SDS011;42226;42.382;23.748;2023-04-24T01:52:57;7.57;;;6.75;;
56319;SDS011;42226;42.382;23.748;2023-04-24T01:55:24;8.05;;;6.47;;
56319;SDS011;42226;42.382;23.748;2023-04-24T01:57:53;7.90;;;6.18;;
56319;SDS011;42226;42.382;23.748;2023-04-24T02:00:23;8.48;;;6.40;;
56319;SDS011;42226;42.382;23.748;2023-04-24T02:02:50;7.10;;;5.97;;
56319;SDS011;42226;42.382;23.748;2023-04-24T02:05:18;7.15;;;6.45;;
56319;SDS011;42226;42.382;23.748;2023-04-24T02:07:45;6.93;;;6.22;;
56319;SDS011;42226;42.382;23.748;2023-04-24T02:10:12;7.10;;;6.40;;
56319;SDS011;42226;42.382;23.748;2023-04-24T02:12:39;7.47;;;6.30;;
56319;SDS011;42226;42.382;23.748;2023-04-24T02:15:07;7.90;;;6.93;;
56319;SDS011;42226;42.382;23.748;2023-04-24T02:17:34;12.15;;;6.60;;
56319;SDS011;42226;42.382;23.748;2023-04-24T02:20:02;7.80;;;6.97;;
56319;SDS011;42226;42.382;23.748;2023-04-24T02:22:30;7.80;;;6.78;;
56319;SDS011;42226;42.382;23.748;2023-04-24T02:24:58;7.82;;;7.03;;
56319;SDS011;42226;42.382;23.748;2023-04-24T02:27:26;8.45;;;7.65;;
56319;SDS011;42226;42.382;23.748;2023-04-24T02:29:53;8.65;;;7.88;;
56319;SDS011;42226;42.382;23.748;2023-04-24T02:32:21;8.60;;;7.80;;
56319;SDS011;42226;42.382;23.748;2023-04-24T02:34:48;8.95;;;7.45;;
56319;SDS011;42226;42.382;23.748;2023-04-24T02:37:16;8.25;;;7.55;;
56319;SDS011;42226;42.382;23.748;2023-04-24T02:39:42;8.27;;;7.50;;
56319;SDS011;42226;42.382;23.748;2023-04-24T02:42:10;8.02;;;7.22;;
56319;SDS011;42226;42.382;23.748;2023-04-24T02:44:37;8.75;;;7.90;;
56319;SDS011;42226;42.382;23.748;2023-04-24T02:47:04;7.35;;;6.75;;
56319;SDS011;42226;42.382;23.748;2023-04-24T02:49:31;7.85;;;7.15;;
56319;SDS011;42226;42.382;23.748;2023-04-24T02:51:58;7.60;;;6.80;;
56319;SDS011;42226;42.382;23.748;2023-04-24T02:54:25;7.78;;;6.95;;
56319;SDS011;42226;42.382;23.748;2023-04-24T02:56:55;7.88;;;7.18;;
56319;SDS011;42226;42.382;23.748;2023-04-24T02:59:23;7.72;;;7.03;;
56319;SDS011;42226;42.382;23.748;2023-04-24T03:01:50;8.23;;;7.35;;
56319;SDS011;42226;42.382;23.748;2023-04-24T03:04:18;8.43;;;7.65;;
56319;SDS011;42226;42.382;23.748;2023-04-24T03:06:45;7.78;;;6.97;;
56319;SDS011;42226;42.382;23.748;2023-04-24T03:09:13;8.27;;;7.45;;
56319;SDS011;42226;42.382;23.748;2023-04-24T03:11:39;9.07;;;7.68;;
56319;SDS011;42226;42.382;23.748;2023-04-24T03:14:07;8.40;;;7.60;;
56319;SDS011;42226;42.382;23.748;2023-04-24T03:16:34;7.80;;;7.00;;
56319;SDS011;42226;42.382;23.748;2023-04-24T03:19:01;9.50;;;7.32;;
56319;SDS011;42226;42.382;23.748;2023-04-24T03:21:28;8.23;;;7.53;;
56319;SDS011;42226;42.382;23.748;2023-04-24T03:23:55;8.60;;;7.70;;
56319;SDS011;42226;42.382;23.748;2023-04-24T03:26:24;8.25;;;7.45;;
56319;SDS011;42226;42.382;23.748;2023-04-24T03:28:50;8.85;;;7.80;;
56319;SDS011;42226;42.382;23.748;2023-04-24T03:31:18;8.45;;;7.65;;
56319;SDS011;42226;42.382;23.748;2023-04-24T03:33:46;8.95;;;6.95;;
56319;SDS011;42226;42.382;23.748;2023-04-24T03:36:13;8.70;;;7.90;;
56319;SDS011;42226;42.382;23.748;2023-04-24T03:38:40;8.20;;;7.40;;
56319;SDS011;42226;42.382;23.748;2023-04-24T03:41:07;8.40;;;7.65;;
56319;SDS011;42226;42.382;23.748;2023-04-24T03:43:36;8.75;;;6.88;;
56319;SDS011;42226;42.382;23.748;2023-04-24T03:46:03;8.68;;;7.68;;
56319;SDS011;42226;42.382;23.748;2023-04-24T03:48:32;7.68;;;6.97;;
56319;SDS011;42226;42.382;23.748;2023-04-24T03:50:59;8.65;;;7.85;;
56319;SDS011;42226;42.382;23.748;2023-04-24T03:53:26;8.02;;;7.32;;
56319;SDS011;42226;42.382;23.748;2023-04-24T03:55:53;8.48;;;7.78;;
56319;SDS011;42226;42.382;23.748;2023-04-24T03:58:21;7.95;;;7.22;;
56319;SDS011;42226;42.382;23.748;2023-04-24T04:00:47;8.10;;;7.30;;
56319;SDS011;42226;42.382;23.748;2023-04-24T04:03:15;7.78;;;7.10;;
56319;SDS011;42226;42.382;23.748;2023-04-24T04:05:42;8.70;;;7.90;;
56319;SDS011;42226;42.382;23.748;2023-04-24T04:08:09;8.55;;;7.75;;
56319;SDS011;42226;42.382;23.748;2023-04-24T04:10:37;8.65;;;7.85;;
56319;SDS011;42226;42.382;23.748;2023-04-24T04:13:04;8.82;;;8.00;;
56319;SDS011;42226;42.382;23.748;2023-04-24T04:15:32;8.65;;;7.85;;
56319;SDS011;42226;42.382;23.748;2023-04-24T04:17:59;8.40;;;7.60;;
56319;SDS011;42226;42.382;23.748;2023-04-24T04:20:27;8.52;;;7.65;;
56319;SDS011;42226;42.382;23.748;2023-04-24T04:22:53;8.20;;;7.40;;
56319;SDS011;42226;42.382;23.748;2023-04-24T04:25:21;9.05;;;7.20;;
56319;SDS011;42226;42.382;23.748;2023-04-24T04:27:48;8.02;;;7.32;;
56319;SDS011;42226;42.382;23.748;2023-04-24T04:30:16;8.10;;;7.30;;
56319;SDS011;42226;42.382;23.748;2023-04-24T04:32:46;7.88;;;7.05;;
56319;SDS011;42226;42.382;23.748;2023-04-24T04:35:13;7.80;;;7.00;;
56319;SDS011;42226;42.382;23.748;2023-04-24T04:37:40;8.48;;;7.57;;
56319;SDS011;42226;42.382;23.748;2023-04-24T04:40:07;7.93;;;7.18;;
56319;SDS011;42226;42.382;23.748;2023-04-24T04:42:38;8.15;;;7.35;;
56319;SDS011;42226;42.382;23.748;2023-04-24T04:45:08;8.25;;;7.38;;
56319;SDS011;42226;42.382;23.748;2023-04-24T04:47:37;7.20;;;6.57;;
56319;SDS011;42226;42.382;23.748;2023-04-24T04:50:05;7.88;;;7.18;;
56319;SDS011;42226;42.382;23.748;2023-04-24T04:52:33;8.00;;;7.30;;
56319;SDS011;42226;42.382;23.748;2023-04-24T04:55:00;7.90;;;6.88;;
56319;SDS011;42226;42.382;23.748;2023-04-24T04:57:27;7.53;;;6.85;;
56319;SDS011;42226;42.382;23.748;2023-04-24T04:59:55;7.40;;;6.80;;
56319;SDS011;42226;42.382;23.748;2023-04-24T05:02:22;6.97;;;6.40;;
56319;SDS011;42226;42.382;23.748;2023-04-24T05:04:49;7.90;;;6.50;;
56319;SDS011;42226;42.382;23.748;2023-04-24T05:07:17;7.32;;;6.00;;
56319;SDS011;42226;42.382;23.748;2023-04-24T05:09:44;7.13;;;6.25;;
56319;SDS011;42226;42.382;23.748;2023-04-24T05:12:12;7.15;;;6.20;;
56319;SDS011;42226;42.382;23.748;2023-04-24T05:14:39;6.28;;;5.63;;
56319;SDS011;42226;42.382;23.748;2023-04-24T05:17:07;7.22;;;6.30;;
56319;SDS011;42226;42.382;23.748;2023-04-24T05:19:34;6.30;;;5.70;;
56319;SDS011;42226;42.382;23.748;2023-04-24T05:22:03;8.60;;;5.95;;
56319;SDS011;42226;42.382;23.748;2023-04-24T05:24:32;6.63;;;6.03;;
56319;SDS011;42226;42.382;23.748;2023-04-24T05:26:59;7.38;;;6.10;;
56319;SDS011;42226;42.382;23.748;2023-04-24T05:29:28;8.55;;;6.15;;
56319;SDS011;42226;42.382;23.748;2023-04-24T05:31:58;7.80;;;6.03;;
56319;SDS011;42226;42.382;23.748;2023-04-24T05:34:26;6.93;;;6.22;;
56319;SDS011;42226;42.382;23.748;2023-04-24T05:36:53;8.52;;;6.60;;
56319;SDS011;42226;42.382;23.748;2023-04-24T05:39:21;6.82;;;6.22;;
56319;SDS011;42226;42.382;23.748;2023-04-24T05:41:51;7.60;;;6.40;;
56319;SDS011;42226;42.382;23.748;2023-04-24T05:44:18;7.15;;;6.45;;
56319;SDS011;42226;42.382;23.748;2023-04-24T05:46:45;7.00;;;6.30;;
56319;SDS011;42226;42.382;23.748;2023-04-24T05:49:12;7.00;;;6.20;;
56319;SDS011;42226;42.382;23.748;2023-04-24T05:51:41;7.10;;;6.40;;
56319;SDS011;42226;42.382;23.748;2023-04-24T05:54:07;6.43;;;5.80;;
56319;SDS011;42226;42.382;23.748;2023-04-24T05:56:36;6.75;;;6.15;;
56319;SDS011;42226;42.382;23.748;2023-04-24T05:59:03;6.70;;;6.10;;
56319;SDS011;42226;42.382;23.748;2023-04-24T06:01:30;6.90;;;6.30;;
56319;SDS011;42226;42.382;23.748;2023-04-24T06:03:58;7.40;;;6.60;;
56319;SDS011;42226;42.382;23.748;2023-04-24T06:06:26;7.75;;;6.60;;
56319;SDS011;42226;42.382;23.748;2023-04-24T06:08:54;7.38;;;6.20;;
56319;SDS011;42226;42.382;23.748;2023-04-24T06:11:22;6.97;;;6.28;;
56319;SDS011;42226;42.382;23.748;2023-04-24T06:13:50;7.82;;;6.40;;
56319;SDS011;42226;42.382;23.748;2023-04-24T06:16:18;7.15;;;6.45;;
56319;SDS011;42226;42.382;23.748;2023-04-24T06:18:45;9.27;;;6.72;;
56319;SDS011;42226;42.382;23.748;2023-04-24T06:21:12;8.82;;;6.40;;
56319;SDS011;42226;42.382;23.748;2023-04-24T06:23:44;7.55;;;6.22;;
56319;SDS011;42226;42.382;23.748;2023-04-24T06:26:12;8.77;;;6.40;;
56319;SDS011;42226;42.382;23.748;2023-04-24T06:28:39;8.35;;;6.28;;
56319;SDS011;42226;42.382;23.748;2023-04-24T06:31:06;7.07;;;6.32;;
56319;SDS011;42226;42.382;23.748;2023-04-24T06:33:33;6.90;;;6.20;;
56319;SDS011;42226;42.382;23.748;2023-04-24T06:36:01;6.68;;;6.07;;
56319;SDS011;42226;42.382;23.748;2023-04-24T06:38:29;7.22;;;6.05;;
56319;SDS011;42226;42.382;23.748;2023-04-24T06:40:57;6.50;;;5.90;;
56319;SDS011;42226;42.382;23.748;2023-04-24T06:43:24;6.72;;;6.07;;
56319;SDS011;42226;42.382;23.748;2023-04-24T06:45:51;10.70;;;6.13;;
56319;SDS011;42226;42.382;23.748;2023-04-24T06:48:18;7.72;;;6.05;;
56319;SDS011;42226;42.382;23.748;2023-04-24T06:50:45;6.80;;;5.90;;
56319;SDS011;42226;42.382;23.748;2023-04-24T06:53:12;7.25;;;6.55;;
56319;SDS011;42226;42.382;23.748;2023-04-24T06:55:40;9.30;;;6.43;;
56319;SDS011;42226;42.382;23.748;2023-04-24T06:58:08;6.55;;;5.72;;
56319;SDS011;42226;42.382;23.748;2023-04-24T07:00:36;6.82;;;5.85;;
56319;SDS011;42226;42.382;23.748;2023-04-24T07:03:04;6.75;;;5.57;;
56319;SDS011;42226;42.382;23.748;2023-04-24T07:05:31;6.20;;;5.53;;
56319;SDS011;42226;42.382;23.748;2023-04-24T07:08:01;9.15;;;6.18;;
56319;SDS011;42226;42.382;23.748;2023-04-24T07:10:28;6.10;;;5.43;;
56319;SDS011;42226;42.382;23.748;2023-04-24T07:12:56;5.90;;;5.30;;
56319;SDS011;42226;42.382;23.748;2023-04-24T07:15:22;7.57;;;5.20;;
56319;SDS011;42226;42.382;23.748;2023-04-24T07:17:50;7.53;;;5.55;;
56319;SDS011;42226;42.382;23.748;2023-04-24T07:20:16;5.95;;;5.35;;
56319;SDS011;42226;42.382;23.748;2023-04-24T07:22:44;5.72;;;5.13;;
56319;SDS011;42226;42.382;23.748;2023-04-24T07:25:11;6.10;;;5.47;;
56319;SDS011;42226;42.382;23.748;2023-04-24T07:27:39;6.72;;;5.18;;
56319;SDS011;42226;42.382;23.748;2023-04-24T07:30:06;6.93;;;5.40;;
56319;SDS011;42226;42.382;23.748;2023-04-24T07:32:34;5.80;;;5.20;;
56319;SDS011;42226;42.382;23.748;2023-04-24T07:35:01;5.55;;;4.78;;
56319;SDS011;42226;42.382;23.748;2023-04-24T07:37:28;5.55;;;4.90;;
56319;SDS011;42226;42.382;23.748;2023-04-24T07:39:55;6.35;;;5.60;;
56319;SDS011;42226;42.382;23.748;2023-04-24T07:42:21;6.30;;;4.70;;
56319;SDS011;42226;42.382;23.748;2023-04-24T07:44:49;5.32;;;4.82;;
56319;SDS011;42226;42.382;23.748;2023-04-24T07:47:16;5.20;;;4.70;;
56319;SDS011;42226;42.382;23.748;2023-04-24T07:49:43;7.60;;;4.88;;
56319;SDS011;42226;42.382;23.748;2023-04-24T07:52:11;5.88;;;4.78;;
56319;SDS011;42226;42.382;23.748;2023-04-24T07:54:38;6.30;;;4.65;;
56319;SDS011;42226;42.382;23.748;2023-04-24T07:57:05;5.72;;;4.80;;
56319;SDS011;42226;42.382;23.748;2023-04-24T07:59:33;6.57;;;4.38;;
56319;SDS011;42226;42.382;23.748;2023-04-24T08:02:02;4.80;;;4.38;;
56319;SDS011;42226;42.382;23.748;2023-04-24T08:04:28;7.40;;;4.50;;
56319;SDS011;42226;42.382;23.748;2023-04-24T08:06:55;5.07;;;4.35;;
56319;SDS011;42226;42.382;23.748;2023-04-24T08:09:22;5.05;;;4.40;;
56319;SDS011;42226;42.382;23.748;2023-04-24T08:11:49;6.55;;;4.40;;
56319;SDS011;42226;42.382;23.748;2023-04-24T08:14:17;5.80;;;4.40;;
56319;SDS011;42226;42.382;23.748;2023-04-24T08:16:44;5.03;;;4.53;;
56319;SDS011;42226;42.382;23.748;2023-04-24T08:19:12;4.60;;;4.15;;
56319;SDS011;42226;42.382;23.748;2023-04-24T08:21:40;6.50;;;4.43;;
56319;SDS011;42226;42.382;23.748;2023-04-24T08:24:07;5.68;;;3.83;;
56319;SDS011;42226;42.382;23.748;2023-04-24T08:26:33;5.38;;;4.32;;
56319;SDS011;42226;42.382;23.748;2023-04-24T08:29:01;5.35;;;4.68;;
56319;SDS011;42226;42.382;23.748;2023-04-24T08:31:28;7.35;;;4.13;;
56319;SDS011;42226;42.382;23.748;2023-04-24T08:33:55;4.55;;;4.03;;
56319;SDS011;42226;42.382;23.748;2023-04-24T08:36:23;5.30;;;4.20;;
56319;SDS011;42226;42.382;23.748;2023-04-24T08:38:50;9.25;;;4.60;;
56319;SDS011;42226;42.382;23.748;2023-04-24T08:41:19;6.38;;;4.07;;
56319;SDS011;42226;42.382;23.748;2023-04-24T08:43:50;5.82;;;4.43;;
56319;SDS011;42226;42.382;23.748;2023-04-24T08:46:18;5.35;;;4.47;;
56319;SDS011;42226;42.382;23.748;2023-04-24T08:48:46;4.70;;;4.30;;
56319;SDS011;42226;42.382;23.748;2023-04-24T08:51:13;5.95;;;4.32;;
56319;SDS011;42226;42.382;23.748;2023-04-24T08:53:43;5.05;;;4.40;;
56319;SDS011;42226;42.382;23.748;2023-04-24T08:56:12;5.53;;;4.10;;
56319;SDS011;42226;42.382;23.748;2023-04-24T08:58:39;5.47;;;4.78;;
56319;SDS011;42226;42.382;23.748;2023-04-24T09:01:09;6.25;;;4.72;;
56319;SDS011;42226;42.382;23.748;2023-04-24T09:03:36;5.15;;;4.45;;
56319;SDS011;42226;42.382;23.748;2023-04-24T09:06:04;5.70;;;4.90;;
56319;SDS011;42226;42.382;23.748;2023-04-24T09:08:33;6.28;;;4.60;;
56319;SDS011;42226;42.382;23.748;2023-04-24T09:11:01;4.50;;;4.10;;
56319;SDS011;42226;42.382;23.748;2023-04-24T09:13:29;4.93;;;4.20;;
56319;SDS011;42226;42.382;23.748;2023-04-24T09:15:58;10.13;;;4.72;;
56319;SDS011;42226;42.382;23.748;2023-04-24T09:18:26;6.20;;;4.18;;
56319;SDS011;42226;42.382;23.748;2023-04-24T09:21:02;5.28;;;4.50;;
56319;SDS011;42226;42.382;23.748;2023-04-24T09:23:33;5.45;;;4.38;;
56319;SDS011;42226;42.382;23.748;2023-04-24T09:26:02;6.15;;;4.70;;
56319;SDS011;42226;42.382;23.748;2023-04-24T09:28:36;5.80;;;3.95;;
56319;SDS011;42226;42.382;23.748;2023-04-24T09:31:11;4.75;;;4.25;;
56319;SDS011;42226;42.382;23.748;2023-04-24T09:34:03;4.70;;;4.03;;
56319;SDS011;42226;42.382;23.748;2023-04-24T09:36:32;5.80;;;3.90;;
56319;SDS011;42226;42.382;23.748;2023-04-24T09:39:05;6.47;;;4.00;;
56319;SDS011;42226;42.382;23.748;2023-04-24T09:44:37;4.88;;;4.00;;
56319;SDS011;42226;42.382;23.748;2023-04-24T09:47:04;7.38;;;4.10;;
56319;SDS011;42226;42.382;23.748;2023-04-24T09:49:35;5.68;;;4.00;;
56319;SDS011;42226;42.382;23.748;2023-04-24T09:52:11;5.00;;;4.00;;
56319;SDS011;42226;42.382;23.748;2023-04-24T09:54:38;5.95;;;3.67;;
56319;SDS011;42226;42.382;23.748;2023-04-24T09:57:07;4.47;;;3.67;;
56319;SDS011;42226;42.382;23.748;2023-04-24T09:59:35;5.38;;;4.10;;
56319;SDS011;42226;42.382;23.748;2023-04-24T10:02:19;4.15;;;3.85;;
56319;SDS011;42226;42.382;23.748;2023-04-24T10:04:56;4.50;;;3.83;;
56319;SDS011;42226;42.382;23.748;2023-04-24T10:07:28;5.10;;;4.22;;
56319;SDS011;42226;42.382;23.748;2023-04-24T10:09:57;5.13;;;3.83;;
56319;SDS011;42226;42.382;23.748;2023-04-24T10:12:26;5.18;;;3.95;;
56319;SDS011;42226;42.382;23.748;2023-04-24T10:14:54;4.35;;;3.92;;
56319;SDS011;42226;42.382;23.748;2023-04-24T10:17:23;5.47;;;4.22;;
56319;SDS011;42226;42.382;23.748;2023-04-24T10:19:52;7.95;;;4.30;;
56319;SDS011;42226;42.382;23.748;2023-04-24T10:22:20;7.30;;;4.00;;
56319;SDS011;42226;42.382;23.748;2023-04-24T10:24:48;4.55;;;3.70;;
56319;SDS011;42226;42.382;23.748;2023-04-24T10:27:17;4.72;;;4.00;;
56319;SDS011;42226;42.382;23.748;2023-04-24T10:29:46;4.15;;;3.70;;
56319;SDS011;42226;42.382;23.748;2023-04-24T10:32:14;4.85;;;3.90;;
56319;SDS011;42226;42.382;23.748;2023-04-24T10:34:42;4.70;;;3.60;;
56319;SDS011;42226;42.382;23.748;2023-04-24T10:37:10;5.22;;;3.95;;
56319;SDS011;42226;42.382;23.748;2023-04-24T10:39:39;7.30;;;4.10;;
56319;SDS011;42226;42.382;23.748;2023-04-24T10:42:16;5.03;;;3.80;;
56319;SDS011;42226;42.382;23.748;2023-04-24T10:44:43;4.95;;;3.70;;
56319;SDS011;42226;42.382;23.748;2023-04-24T10:47:15;5.40;;;3.80;;
56319;SDS011;42226;42.382;23.748;2023-04-24T10:49:43;5.75;;;3.88;;
56319;SDS011;42226;42.382;23.748;2023-04-24T10:52:10;4.80;;;4.30;;
56319;SDS011;42226;42.382;23.748;2023-04-24T10:54:41;5.80;;;4.10;;
56319;SDS011;42226;42.382;23.748;2023-04-24T10:59:47;5.45;;;3.83;;
56319;SDS011;42226;42.382;23.748;2023-04-24T11:02:38;4.78;;;4.28;;
56319;SDS011;42226;42.382;23.748;2023-04-24T11:05:14;5.30;;;4.20;;
56319;SDS011;42226;42.382;23.748;2023-04-24T11:10:47;5.15;;;4.43;;
56319;SDS011;42226;42.382;23.748;2023-04-24T11:13:25;7.30;;;4.50;;
56319;SDS011;42226;42.382;23.748;2023-04-24T11:16:15;4.60;;;4.20;;
56319;SDS011;42226;42.382;23.748;2023-04-24T11:21:59;5.10;;;4.38;;
56319;SDS011;42226;42.382;23.748;2023-04-24T11:24:48;5.43;;;3.83;;
56319;SDS011;42226;42.382;23.748;2023-04-24T11:27:19;5.32;;;4.05;;
56319;SDS011;42226;42.382;23.748;2023-04-24T11:32:28;5.50;;;4.10;;
56319;SDS011;42226;42.382;23.748;2023-04-24T11:35:15;5.28;;;3.83;;
56319;SDS011;42226;42.382;23.748;2023-04-24T11:37:50;7.65;;;4.00;;
56319;SDS011;42226;42.382;23.748;2023-04-24T11:40:20;4.72;;;4.10;;
56319;SDS011;42226;42.382;23.748;2023-04-24T11:42:50;4.18;;;3.53;;
56319;SDS011;42226;42.382;23.748;2023-04-24T11:45:30;5.20;;;4.00;;
56319;SDS011;42226;42.382;23.748;2023-04-24T11:47:57;4.63;;;3.75;;
56319;SDS011;42226;42.382;23.748;2023-04-24T11:50:25;5.72;;;4.20;;
56319;SDS011;42226;42.382;23.748;2023-04-24T11:52:55;4.50;;;3.78;;
56319;SDS011;42226;42.382;23.748;2023-04-24T11:55:22;5.85;;;4.15;;
56319;SDS011;42226;42.382;23.748;2023-04-24T11:57:56;4.40;;;3.97;;
56319;SDS011;42226;42.382;23.748;2023-04-24T12:00:28;5.60;;;3.88;;
56319;SDS011;42226;42.382;23.748;2023-04-24T12:03:06;4.57;;;4.00;;
56319;SDS011;42226;42.382;23.748;2023-04-24T12:05:38;4.43;;;3.80;;
56319;SDS011;42226;42.382;23.748;2023-04-24T12:08:05;5.47;;;3.88;;
56319;SDS011;42226;42.382;23.748;2023-04-24T12:10:32;4.32;;;3.95;;
56319;SDS011;42226;42.382;23.748;2023-04-24T12:13:00;5.65;;;3.90;;
56319;SDS011;42226;42.382;23.748;2023-04-24T12:15:28;3.72;;;3.35;;
56319;SDS011;42226;42.382;23.748;2023-04-24T12:17:58;4.72;;;3.88;;
56319;SDS011;42226;42.382;23.748;2023-04-24T12:20:28;6.03;;;3.92;;
56319;SDS011;42226;42.382;23.748;2023-04-24T12:22:58;4.28;;;3.88;;
56319;SDS011;42226;42.382;23.748;2023-04-24T12:25:29;4.35;;;3.80;;
56319;SDS011;42226;42.382;23.748;2023-04-24T12:30:32;4.93;;;4.18;;
56319;SDS011;42226;42.382;23.748;2023-04-24T12:33:04;4.43;;;4.00;;
56319;SDS011;42226;42.382;23.748;2023-04-24T12:35:32;4.28;;;3.97;;
56319;SDS011;42226;42.382;23.748;2023-04-24T12:38:10;4.65;;;4.10;;
56319;SDS011;42226;42.382;23.748;2023-04-24T12:40:40;5.78;;;4.30;;
56319;SDS011;42226;42.382;23.748;2023-04-24T12:43:14;5.22;;;4.72;;
56319;SDS011;42226;42.382;23.748;2023-04-24T12:45:47;5.05;;;4.40;;
56319;SDS011;42226;42.382;23.748;2023-04-24T12:48:14;5.78;;;4.97;;
56319;SDS011;42226;42.382;23.748;2023-04-24T12:50:42;6.10;;;5.50;;
56319;SDS011;42226;42.382;23.748;2023-04-24T12:53:09;5.70;;;5.20;;
56319;SDS011;42226;42.382;23.748;2023-04-24T12:55:36;6.03;;;4.90;;
56319;SDS011;42226;42.382;23.748;2023-04-24T12:58:04;6.78;;;5.55;;
56319;SDS011;42226;42.382;23.748;2023-04-24T13:00:31;5.38;;;4.88;;
56319;SDS011;42226;42.382;23.748;2023-04-24T13:02:59;4.97;;;4.55;;
56319;SDS011;42226;42.382;23.748;2023-04-24T13:05:26;8.32;;;5.15;;
56319;SDS011;42226;42.382;23.748;2023-04-24T13:07:53;6.20;;;5.40;;
56319;SDS011;42226;42.382;23.748;2023-04-24T13:10:21;5.50;;;5.00;;
56319;SDS011;42226;42.382;23.748;2023-04-24T13:12:48;5.68;;;4.88;;
56319;SDS011;42226;42.382;23.748;2023-04-24T13:15:15;4.57;;;4.18;;
56319;SDS011;42226;42.382;23.748;2023-04-24T13:17:41;5.90;;;4.70;;
56319;SDS011;42226;42.382;23.748;2023-04-24T13:20:09;7.25;;;5.60;;
56319;SDS011;42226;42.382;23.748;2023-04-24T13:22:36;6.75;;;6.07;;
56319;SDS011;42226;42.382;23.748;2023-04-24T13:25:03;5.82;;;4.28;;
56319;SDS011;42226;42.382;23.748;2023-04-24T13:27:35;6.93;;;5.03;;
56319;SDS011;42226;42.382;23.748;2023-04-24T13:30:04;6.93;;;5.50;;
56319;SDS011;42226;42.382;23.748;2023-04-24T13:32:33;5.30;;;4.80;;
56319;SDS011;42226;42.382;23.748;2023-04-24T13:35:01;6.30;;;5.28;;
56319;SDS011;42226;42.382;23.748;2023-04-24T13:37:28;6.70;;;5.40;;
56319;SDS011;42226;42.382;23.748;2023-04-24T13:39:55;7.78;;;5.30;;
56319;SDS011;42226;42.382;23.748;2023-04-24T13:42:21;5.72;;;5.15;;
56319;SDS011;42226;42.382;23.748;2023-04-24T13:44:48;5.95;;;5.35;;
56319;SDS011;42226;42.382;23.748;2023-04-24T13:47:16;6.40;;;5.38;;
56319;SDS011;42226;42.382;23.748;2023-04-24T13:49:42;6.97;;;5.22;;
56319;SDS011;42226;42.382;23.748;2023-04-24T13:52:10;5.85;;;5.25;;
56319;SDS011;42226;42.382;23.748;2023-04-24T13:54:37;9.18;;;6.95;;
56319;SDS011;42226;42.382;23.748;2023-04-24T13:57:05;8.13;;;7.40;;
56319;SDS011;42226;42.382;23.748;2023-04-24T13:59:32;7.78;;;6.80;;
56319;SDS011;42226;42.382;23.748;2023-04-24T14:01:59;7.15;;;6.00;;
56319;SDS011;42226;42.382;23.748;2023-04-24T14:04:26;9.32;;;6.47;;
56319;SDS011;42226;42.382;23.748;2023-04-24T14:06:53;7.13;;;5.80;;
56319;SDS011;42226;42.382;23.748;2023-04-24T14:09:20;6.78;;;6.03;;
56319;SDS011;42226;42.382;23.748;2023-04-24T14:11:48;6.93;;;6.07;;
56319;SDS011;42226;42.382;23.748;2023-04-24T14:14:16;7.25;;;5.88;;
56319;SDS011;42226;42.382;23.748;2023-04-24T14:16:43;8.55;;;6.55;;
56319;SDS011;42226;42.382;23.748;2023-04-24T14:19:10;7.15;;;6.38;;
56319;SDS011;42226;42.382;23.748;2023-04-24T14:21:37;8.02;;;7.22;;
56319;SDS011;42226;42.382;23.748;2023-04-24T14:24:04;7.72;;;6.70;;
56319;SDS011;42226;42.382;23.748;2023-04-24T14:26:31;7.60;;;6.88;;
56319;SDS011;42226;42.382;23.748;2023-04-24T14:28:58;8.30;;;7.03;;
56319;SDS011;42226;42.382;23.748;2023-04-24T14:31:25;8.57;;;7.60;;
56319;SDS011;42226;42.382;23.748;2023-04-24T14:33:53;12.85;;;7.43;;
56319;SDS011;42226;42.382;23.748;2023-04-24T14:36:20;8.93;;;8.02;;
56319;SDS011;42226;42.382;23.748;2023-04-24T14:38:48;10.00;;;8.80;;
56319;SDS011;42226;42.382;23.748;2023-04-24T14:41:16;10.63;;;8.40;;
56319;SDS011;42226;42.382;23.748;2023-04-24T14:43:43;10.40;;;9.30;;
56319;SDS011;42226;42.382;23.748;2023-04-24T14:46:11;10.57;;;9.57;;
56319;SDS011;42226;42.382;23.748;2023-04-24T14:48:38;11.13;;;9.50;;
56319;SDS011;42226;42.382;23.748;2023-04-24T14:51:05;11.07;;;9.98;;
56319;SDS011;42226;42.382;23.748;2023-04-24T14:53:32;11.30;;;9.70;;
56319;SDS011;42226;42.382;23.748;2023-04-24T14:56:00;10.05;;;9.05;;
56319;SDS011;42226;42.382;23.748;2023-04-24T14:58:26;11.43;;;8.70;;